M0ZPG Weather Reports


Display with metric or nautical units.
time (UTC)temp
F
wind
direction
speed
MPH
gust
MPH
rain 1hr
in
rain 24hr
in
rain mn
in
humidity
%
barometer
mb
20200531172439 69 71 6.0 15.0 0.00 0.00 0.00 41 1021.5
20200531171539 69 85 5.0 13.0 0.00 0.00 0.00 41 1021.6
20200531170640 69 86 7.0 18.0 0.00 0.00 0.00 41 1021.6
20200531165740 70 74 5.0 13.0 0.00 0.00 0.00 41 1021.6
20200531164839 70 87 6.0 18.0 0.00 0.00 0.00 41 1021.4
20200531163939 70 83 7.0 17.0 0.00 0.00 0.00 40 1021.5
20200531163039 71 89 7.0 18.0 0.00 0.00 0.00 40 1021.5
20200531162140 71 85 7.0 18.0 0.00 0.00 0.00 38 1021.6
20200531161239 71 79 6.0 20.0 0.00 0.00 0.00 38 1021.6
20200531160339 71 72 5.0 13.0 0.00 0.00 0.00 37 1021.6
20200531155439 72 77 5.0 15.0 0.00 0.00 0.00 37 1021.7
20200531154540 72 69 6.0 14.0 0.00 0.00 0.00 37 1021.8
20200531153640 72 74 6.0 16.0 0.00 0.00 0.00 36 1021.6
20200531152740 72 71 6.0 20.0 0.00 0.00 0.00 35 1021.6
20200531151839 72 90 6.0 17.0 0.00 0.00 0.00 35 1021.7
20200531150939 73 84 5.0 15.0 0.00 0.00 0.00 34 1021.6
20200531150039 73 86 5.0 14.0 0.00 0.00 0.00 34 1021.6
20200531145139 73 75 6.0 15.0 0.00 0.00 0.00 34 1021.7
20200531144239 73 74 6.0 14.0 0.00 0.00 0.00 35 1021.6
20200531143340 73 74 8.0 15.0 0.00 0.00 0.00 35 1021.6
20200531142439 74 73 5.0 14.0 0.00 0.00 0.00 35 1021.7
20200531141540 73 70 7.0 18.0 0.00 0.00 0.00 34 1021.8
20200531140639 74 67 5.0 12.0 0.00 0.00 0.00 34 1021.7
20200531135739 74 76 6.0 14.0 0.00 0.00 0.00 34 1021.8
20200531134839 73 72 7.0 17.0 0.00 0.00 0.00 33 1021.7
20200531133939 74 66 5.0 14.0 0.00 0.00 0.00 32 1021.8
20200531133039 74 75 5.0 14.0 0.00 0.00 0.00 32 1021.8
20200531132139 74 79 6.0 14.0 0.00 0.00 0.00 32 1021.9
20200531131239 74 92 5.0 14.0 0.00 0.00 0.00 33 1021.8
20200531130339 74 80 5.0 16.0 0.00 0.00 0.00 32 1021.9
20200531125439 74 73 6.0 15.0 0.00 0.00 0.00 32 1021.8
20200531124539 75 64 6.0 15.0 0.00 0.00 0.00 32 1022.0
20200531123639 75 69 5.0 14.0 0.00 0.00 0.00 33 1022.0
20200531122740 75 73 5.0 19.0 0.00 0.00 0.00 33 1022.0
20200531121839 75 58 4.0 12.0 0.00 0.00 0.00 33 1021.9
20200531120939 74 83 5.0 14.0 0.00 0.00 0.00 34 1021.8
20200531120039 74 78 6.0 14.0 0.00 0.00 0.00 33 1021.8
20200531115139 74 73 6.0 17.0 0.00 0.00 0.00 35 1021.8
20200531114239 74 78 5.0 13.0 0.00 0.00 0.00 35 1021.9
20200531113339 74 74 5.0 13.0 0.00 0.00 0.00 35 1021.8
20200531112439 74 87 6.0 13.0 0.00 0.00 0.00 31 1022.0
20200531111539 75 88 5.0 14.0 0.00 0.00 0.00 34 1022.0
20200531110639 74 64 5.0 16.0 0.00 0.00 0.00 33 1021.9
20200531105739 74 80 6.0 16.0 0.00 0.00 0.00 34 1021.9
20200531104839 74 85 6.0 15.0 0.00 0.00 0.00 35 1021.9
20200531103939 74 84 6.0 14.0 0.00 0.00 0.00 36 1021.9
20200531103039 74 91 6.0 16.0 0.00 0.00 0.00 35 1021.8
20200531102139 74 71 4.0 12.0 0.00 0.00 0.00 35 1021.7
20200531101239 74 70 5.0 13.0 0.00 0.00 0.00 36 1021.7
20200531100339 73 87 4.0 12.0 0.00 0.00 0.00 39 1021.7
20200531095439 73 81 4.0 12.0 0.00 0.00 0.00 38 1021.6
20200531094539 73 77 4.0 13.0 0.00 0.00 0.00 40 1021.6
20200531093639 73 77 4.0 12.0 0.00 0.00 0.00 42 1021.5
20200531092740 73 78 3.0 12.0 0.00 0.00 0.00 44 1021.5
20200531091839 72 63 3.0 9.0 0.00 0.00 0.00 47 1021.4
20200531090939 72 73 3.0 10.0 0.00 0.00 0.00 47 1021.7
20200531090039 71 42 3.0 9.0 0.00 0.00 0.00 51 1021.6
20200531085139 71 72 3.0 9.0 0.00 0.00 0.00 52 1021.7
20200531084239 70 56 2.0 7.0 0.00 0.00 0.00 53 1021.6
20200531083339 69 59 2.0 7.0 0.00 0.00 0.00 54 1021.7
20200531082439 69 70 3.0 7.0 0.00 0.00 0.00 55 1021.7
20200531081540 68 52 2.0 9.0 0.00 0.00 0.00 57 1021.7
20200531080639 67 48 2.0 7.0 0.00 0.00 0.00 57 1021.6
20200531075739 67 72 2.0 7.0 0.00 0.00 0.00 59 1021.8
20200531074839 66 77 2.0 7.0 0.00 0.00 0.00 60 1021.6
20200531073039 65 71 2.0 8.0 0.00 0.00 0.00 62 1021.5
20200531072139 64 83 3.0 10.0 0.00 0.00 0.00 63 1021.5
20200531071239 64 77 2.0 8.0 0.00 0.00 0.00 65 1021.5
20200531070339 63 78 3.0 8.0 0.00 0.00 0.00 66 1021.5
20200531065439 62 73 3.0 8.0 0.00 0.00 0.00 66 1021.6
20200531064539 62 79 3.0 9.0 0.00 0.00 0.00 68 1021.4
20200531063639 61 84 2.0 9.0 0.00 0.00 0.00 69 1021.6
20200531062739 60 80 3.0 8.0 0.00 0.00 0.00 70 1021.6
20200531061839 60 71 3.0 7.0 0.00 0.00 0.00 70 1021.5
20200531060939 59 77 3.0 9.0 0.00 0.00 0.00 71 1021.6
20200531060040 58 80 3.0 8.0 0.00 0.00 0.00 71 1021.6
20200531055139 58 76 2.0 8.0 0.00 0.00 0.00 71 1021.5
20200531054240 57 77 2.0 6.0 0.00 0.00 0.00 72 1021.5
20200531053339 56 75 2.0 7.0 0.00 0.00 0.00 73 1021.4
20200531052439 55 78 1.0 4.0 0.00 0.00 0.00 73 1021.4
20200531051539 55 71 2.0 4.0 0.00 0.00 0.00 73 1021.2
20200531050639 55 71 2.0 6.0 0.00 0.00 0.00 73 1021.3
20200531045739 54 66 1.0 5.0 0.00 0.00 0.00 73 1021.3
20200531044839 54 74 1.0 4.0 0.00 0.00 0.00 73 1021.2
20200531043939 54 88 1.0 5.0 0.00 0.00 0.00 73 1021.0
20200531043039 54 73 2.0 6.0 0.00 0.00 0.00 72 1021.0
20200531042140 54 86 1.0 6.0 0.00 0.00 0.00 72 1021.0
20200531041239 54 76 2.0 8.0 0.00 0.00 0.00 71 1020.9
20200531040339 54 65 1.0 3.0 0.00 0.00 0.00 71 1020.9
20200531035439 54 74 1.0 4.0 0.00 0.00 0.00 71 1020.8
20200531034539 55 73 1.0 4.0 0.00 0.00 0.00 70 1020.7
20200531033639 55 70 2.0 7.0 0.00 0.00 0.00 69 1020.7
20200531032739 55 64 2.0 7.0 0.00 0.00 0.00 69 1020.7
20200531031839 55 72 2.0 4.0 0.00 0.00 0.00 69 1020.8
20200531030939 55 79 2.0 6.0 0.00 0.00 0.00 68 1020.7
20200531030039 56 74 2.0 7.0 0.00 0.00 0.00 68 1020.8
20200531025139 56 78 2.0 7.0 0.00 0.00 0.00 68 1020.8
20200531024239 56 77 2.0 8.0 0.00 0.00 0.00 68 1020.8
20200531023339 56 77 3.0 8.0 0.00 0.00 0.00 68 1020.9
20200531022439 56 76 2.0 7.0 0.00 0.00 0.00 68 1020.9
20200531021539 56 75 2.0 8.0 0.00 0.00 0.00 68 1020.8
20200531020639 56 76 2.0 8.0 0.00 0.00 0.00 68 1020.9
20200531015739 56 75 2.0 6.0 0.00 0.00 0.00 68 1020.8
20200531014839 56 73 2.0 9.0 0.00 0.00 0.00 68 1021.0
20200531013939 57 78 2.0 6.0 0.00 0.00 0.00 68 1021.0
20200531013039 57 82 2.0 8.0 0.00 0.00 0.00 68 1021.1
20200531012139 57 81 2.0 5.0 0.00 0.00 0.00 68 1021.1
20200531011239 57 73 2.0 9.0 0.00 0.00 0.00 68 1021.2
20200531010339 57 75 2.0 8.0 0.00 0.00 0.00 68 1021.2
20200531005439 57 69 3.0 7.0 0.00 0.00 0.00 67 1021.1
20200531004539 57 73 3.0 7.0 0.00 0.00 0.00 67 1021.3
20200531003639 57 65 2.0 5.0 0.00 0.00 0.00 67 1021.3
20200531002739 58 65 2.0 7.0 0.00 0.00 0.00 66 1021.4
20200531001839 58 62 2.0 7.0 0.00 0.00 0.00 66 1021.4
20200531000939 58 65 2.0 7.0 0.00 0.00 0.00 66 1021.5
20200531000039 58 61 2.0 7.0 0.00 0.00 0.00 65 1021.5
20200530235139 58 70 2.0 4.0 0.00 0.00 0.00 65 1021.6
20200530234239 58 66 1.0 8.0 0.00 0.00 0.00 65 1021.7
20200530233339 58 63 1.0 6.0 0.00 0.00 0.00 65 1021.8
20200530232439 59 74 1.0 4.0 0.00 0.00 0.00 64 1021.9
20200530231539 59 65 1.0 6.0 0.00 0.00 0.00 63 1022.0
20200530230639 59 71 2.0 9.0 0.00 0.00 0.00 63 1021.9
20200530225739 60 74 2.0 9.0 0.00 0.00 0.00 63 1022.0
20200530224839 60 73 3.0 9.0 0.00 0.00 0.00 63 1022.0
20200530223939 60 65 2.0 8.0 0.00 0.00 0.00 63 1022.0
20200530223039 60 65 2.0 8.0 0.00 0.00 0.00 62 1021.8
20200530222139 60 72 2.0 9.0 0.00 0.00 0.00 61 1021.9
20200530221239 61 69 3.0 9.0 0.00 0.00 0.00 61 1021.9
20200530220339 61 75 3.0 9.0 0.00 0.00 0.00 59 1021.8
20200530215439 61 68 2.0 7.0 0.00 0.00 0.00 57 1021.7
20200530214539 61 72 2.0 8.0 0.00 0.00 0.00 56 1021.7
20200530213639 62 72 2.0 6.0 0.00 0.00 0.00 54 1021.7
20200530212739 62 74 3.0 9.0 0.00 0.00 0.00 54 1021.7
20200530211839 62 78 2.0 8.0 0.00 0.00 0.00 53 1021.7
20200530210940 62 77 3.0 10.0 0.00 0.00 0.00 52 1021.7
20200530210039 63 76 4.0 11.0 0.00 0.00 0.00 52 1021.7
20200530205139 63 71 3.0 11.0 0.00 0.00 0.00 52 1021.5
20200530204239 63 72 1.0 5.0 0.00 0.00 0.00 52 1021.5
20200530203339 64 81 2.0 10.0 0.00 0.00 0.00 51 1021.4
20200530202439 64 82 3.0 8.0 0.00 0.00 0.00 51 1021.4
20200530201539 64 78 3.0 11.0 0.00 0.00 0.00 50 1021.4
20200530200639 65 73 4.0 11.0 0.00 0.00 0.00 50 1021.2
20200530195739 65 81 5.0 11.0 0.00 0.00 0.00 50 1020.9
20200530194839 65 80 2.0 7.0 0.00 0.00 0.00 49 1020.9
20200530193939 65 84 2.0 8.0 0.00 0.00 0.00 47 1020.8
20200530193039 66 72 3.0 12.0 0.00 0.00 0.00 46 1020.9
20200530192139 66 83 5.0 14.0 0.00 0.00 0.00 45 1020.9
20200530191239 66 84 5.0 12.0 0.00 0.00 0.00 43 1020.9
20200530190340 67 86 4.0 17.0 0.00 0.00 0.00 42 1020.8
20200530185439 67 77 5.0 13.0 0.00 0.00 0.00 41 1020.8
20200530184539 67 76 5.0 13.0 0.00 0.00 0.00 40 1020.8
20200530183639 68 79 6.0 16.0 0.00 0.00 0.00 39 1021.0
20200530182739 68 95 5.0 12.0 0.00 0.00 0.00 39 1020.9
20200530181839 69 87 5.0 12.0 0.00 0.00 0.00 39 1020.8
20200530180939 69 87 6.0 16.0 0.00 0.00 0.00 38 1020.9
20200530180039 69 81 5.0 15.0 0.00 0.00 0.00 36 1020.8
20200530175139 70 76 5.0 12.0 0.00 0.00 0.00 34 1020.7
20200530173405 71 82 4.0 13.0 0.00 0.00 0.00 33 1020.6